sensor_id;sensor_type;location;lat;lon;timestamp;pressure;altitude;pressure_sealevel;temperature;humidity
77776;BME280;73554;43.328;6.668;2024-01-07T00:01:30;99261.88;;;10.97;100.00
77776;BME280;73554;43.328;6.668;2024-01-07T00:03:56;99242.75;;;10.95;100.00
77776;BME280;73554;43.328;6.668;2024-01-07T00:06:21;99212.06;;;10.97;100.00
77776;BME280;73554;43.328;6.668;2024-01-07T00:08:49;99203.28;;;11.15;100.00
77776;BME280;73554;43.328;6.668;2024-01-07T00:11:17;99194.13;;;11.24;100.00
77776;BME280;73554;43.328;6.668;2024-01-07T00:13:43;99249.44;;;11.19;100.00
77776;BME280;73554;43.328;6.668;2024-01-07T00:16:08;99247.03;;;11.15;100.00
77776;BME280;73554;43.328;6.668;2024-01-07T00:18:33;99218.88;;;11.18;100.00
77776;BME280;73554;43.328;6.668;2024-01-07T00:20:59;99229.84;;;11.26;100.00
77776;BME280;73554;43.328;6.668;2024-01-07T00:23:25;99207.00;;;11.28;100.00
77776;BME280;73554;43.328;6.668;2024-01-07T00:25:50;99178.44;;;11.40;100.00
77776;BME280;73554;43.328;6.668;2024-01-07T00:28:16;99211.66;;;11.41;100.00
77776;BME280;73554;43.328;6.668;2024-01-07T00:30:41;99216.03;;;11.40;100.00
77776;BME280;73554;43.328;6.668;2024-01-07T00:33:06;99246.19;;;11.31;100.00
77776;BME280;73554;43.328;6.668;2024-01-07T00:35:32;99264.38;;;11.17;100.00
77776;BME280;73554;43.328;6.668;2024-01-07T00:37:57;99286.34;;;10.98;100.00
77776;BME280;73554;43.328;6.668;2024-01-07T00:40:23;99231.75;;;11.06;100.00
77776;BME280;73554;43.328;6.668;2024-01-07T00:42:49;99290.44;;;10.85;100.00
77776;BME280;73554;43.328;6.668;2024-01-07T00:45:14;99249.81;;;10.93;100.00
77776;BME280;73554;43.328;6.668;2024-01-07T00:47:40;99244.25;;;10.82;100.00
77776;BME280;73554;43.328;6.668;2024-01-07T00:50:06;99241.56;;;10.84;100.00
77776;BME280;73554;43.328;6.668;2024-01-07T00:52:31;99263.25;;;10.87;100.00
77776;BME280;73554;43.328;6.668;2024-01-07T00:54:57;99232.13;;;10.80;100.00
77776;BME280;73554;43.328;6.668;2024-01-07T00:57:22;99274.72;;;10.66;100.00
77776;BME280;73554;43.328;6.668;2024-01-07T00:59:47;99249.31;;;10.68;100.00
77776;BME280;73554;43.328;6.668;2024-01-07T01:02:13;99244.84;;;10.70;100.00
77776;BME280;73554;43.328;6.668;2024-01-07T01:04:39;99267.81;;;10.65;100.00
77776;BME280;73554;43.328;6.668;2024-01-07T01:07:07;99263.06;;;10.54;100.00
77776;BME280;73554;43.328;6.668;2024-01-07T01:09:33;99210.28;;;10.62;100.00
77776;BME280;73554;43.328;6.668;2024-01-07T01:11:59;99238.59;;;10.73;100.00
77776;BME280;73554;43.328;6.668;2024-01-07T01:14:24;99177.53;;;10.89;100.00
77776;BME280;73554;43.328;6.668;2024-01-07T01:16:50;99246.97;;;10.81;100.00
77776;BME280;73554;43.328;6.668;2024-01-07T01:19:16;99246.03;;;10.82;100.00
77776;BME280;73554;43.328;6.668;2024-01-07T01:21:42;99265.94;;;10.67;100.00
77776;BME280;73554;43.328;6.668;2024-01-07T01:24:07;99244.72;;;10.73;100.00
77776;BME280;73554;43.328;6.668;2024-01-07T01:26:33;99271.28;;;10.65;100.00
77776;BME280;73554;43.328;6.668;2024-01-07T01:28:58;99209.88;;;10.88;100.00
77776;BME280;73554;43.328;6.668;2024-01-07T01:31:23;99259.44;;;10.76;100.00
77776;BME280;73554;43.328;6.668;2024-01-07T01:33:49;99254.59;;;10.85;100.00
77776;BME280;73554;43.328;6.668;2024-01-07T01:36:14;99258.16;;;10.84;100.00
77776;BME280;73554;43.328;6.668;2024-01-07T01:38:40;99293.69;;;10.71;100.00
77776;BME280;73554;43.328;6.668;2024-01-07T01:41:05;99244.34;;;10.81;100.00
77776;BME280;73554;43.328;6.668;2024-01-07T01:43:31;99269.47;;;10.85;100.00
77776;BME280;73554;43.328;6.668;2024-01-07T01:45:56;99305.25;;;10.67;100.00
77776;BME280;73554;43.328;6.668;2024-01-07T01:48:22;99244.09;;;10.85;100.00
77776;BME280;73554;43.328;6.668;2024-01-07T01:50:49;99291.53;;;10.62;100.00
77776;BME280;73554;43.328;6.668;2024-01-07T01:53:15;99284.66;;;10.59;100.00
77776;BME280;73554;43.328;6.668;2024-01-07T01:55:42;99279.91;;;10.67;100.00
77776;BME280;73554;43.328;6.668;2024-01-07T01:58:09;99300.66;;;10.72;100.00
77776;BME280;73554;43.328;6.668;2024-01-07T02:00:34;99301.50;;;10.73;100.00
77776;BME280;73554;43.328;6.668;2024-01-07T02:03:00;99276.66;;;10.81;100.00
77776;BME280;73554;43.328;6.668;2024-01-07T02:05:26;99286.03;;;10.85;100.00
77776;BME280;73554;43.328;6.668;2024-01-07T02:07:52;99312.84;;;10.73;100.00
77776;BME280;73554;43.328;6.668;2024-01-07T02:10:18;99324.22;;;10.72;100.00
77776;BME280;73554;43.328;6.668;2024-01-07T02:12:43;99261.09;;;10.77;100.00
77776;BME280;73554;43.328;6.668;2024-01-07T02:15:09;99280.69;;;10.69;100.00
77776;BME280;73554;43.328;6.668;2024-01-07T02:17:34;99295.69;;;10.66;100.00
77776;BME280;73554;43.328;6.668;2024-01-07T02:20:00;99269.63;;;10.82;100.00
77776;BME280;73554;43.328;6.668;2024-01-07T02:22:25;99296.84;;;10.79;100.00
77776;BME280;73554;43.328;6.668;2024-01-07T02:24:51;99239.44;;;10.92;100.00
77776;BME280;73554;43.328;6.668;2024-01-07T02:27:16;99292.56;;;10.77;100.00
77776;BME280;73554;43.328;6.668;2024-01-07T02:29:42;99251.91;;;10.87;100.00
77776;BME280;73554;43.328;6.668;2024-01-07T02:32:07;99298.66;;;10.77;100.00
77776;BME280;73554;43.328;6.668;2024-01-07T02:34:32;99274.03;;;10.81;100.00
77776;BME280;73554;43.328;6.668;2024-01-07T02:36:58;99300.44;;;10.58;100.00
77776;BME280;73554;43.328;6.668;2024-01-07T02:39:23;99302.41;;;10.53;100.00
77776;BME280;73554;43.328;6.668;2024-01-07T02:41:49;99295.28;;;10.56;100.00
77776;BME280;73554;43.328;6.668;2024-01-07T02:44:15;99259.44;;;10.57;100.00
77776;BME280;73554;43.328;6.668;2024-01-07T02:46:40;99276.28;;;10.51;100.00
77776;BME280;73554;43.328;6.668;2024-01-07T02:49:06;99296.41;;;10.51;100.00
77776;BME280;73554;43.328;6.668;2024-01-07T02:51:31;99274.16;;;10.59;100.00
77776;BME280;73554;43.328;6.668;2024-01-07T02:53:56;99304.13;;;10.54;100.00
77776;BME280;73554;43.328;6.668;2024-01-07T02:56:22;99271.06;;;10.70;100.00
77776;BME280;73554;43.328;6.668;2024-01-07T02:58:47;99269.19;;;10.72;100.00
77776;BME280;73554;43.328;6.668;2024-01-07T03:01:13;99295.50;;;10.70;100.00
77776;BME280;73554;43.328;6.668;2024-01-07T03:03:38;99257.00;;;10.71;100.00
77776;BME280;73554;43.328;6.668;2024-01-07T03:06:04;99277.34;;;10.66;100.00
77776;BME280;73554;43.328;6.668;2024-01-07T03:08:29;99294.91;;;10.64;100.00
77776;BME280;73554;43.328;6.668;2024-01-07T03:10:55;99256.88;;;10.74;100.00
77776;BME280;73554;43.328;6.668;2024-01-07T03:13:20;99285.84;;;10.71;100.00
77776;BME280;73554;43.328;6.668;2024-01-07T03:15:46;99278.78;;;10.73;100.00
77776;BME280;73554;43.328;6.668;2024-01-07T03:18:11;99301.88;;;10.65;100.00
77776;BME280;73554;43.328;6.668;2024-01-07T03:20:36;99265.22;;;10.63;100.00
77776;BME280;73554;43.328;6.668;2024-01-07T03:23:02;99268.84;;;10.61;100.00
77776;BME280;73554;43.328;6.668;2024-01-07T03:25:28;99314.38;;;10.58;100.00
77776;BME280;73554;43.328;6.668;2024-01-07T03:27:53;99306.25;;;10.46;100.00
77776;BME280;73554;43.328;6.668;2024-01-07T03:30:18;99281.09;;;10.60;100.00
77776;BME280;73554;43.328;6.668;2024-01-07T03:32:44;99315.66;;;10.50;100.00
77776;BME280;73554;43.328;6.668;2024-01-07T03:35:09;99317.09;;;10.57;100.00
77776;BME280;73554;43.328;6.668;2024-01-07T03:37:35;99299.66;;;10.56;100.00
77776;BME280;73554;43.328;6.668;2024-01-07T03:40:00;99298.66;;;10.58;100.00
77776;BME280;73554;43.328;6.668;2024-01-07T03:42:26;99282.25;;;10.74;100.00
77776;BME280;73554;43.328;6.668;2024-01-07T03:44:51;99295.50;;;10.70;100.00
77776;BME280;73554;43.328;6.668;2024-01-07T03:47:17;99293.78;;;10.69;100.00
77776;BME280;73554;43.328;6.668;2024-01-07T03:49:42;99253.69;;;10.86;100.00
77776;BME280;73554;43.328;6.668;2024-01-07T03:52:08;99296.84;;;10.79;100.00
77776;BME280;73554;43.328;6.668;2024-01-07T03:54:33;99260.16;;;10.96;100.00
77776;BME280;73554;43.328;6.668;2024-01-07T03:56:59;99234.38;;;11.06;100.00
77776;BME280;73554;43.328;6.668;2024-01-07T03:59:24;99293.41;;;10.96;100.00
77776;BME280;73554;43.328;6.668;2024-01-07T04:01:52;99309.97;;;10.96;100.00
77776;BME280;73554;43.328;6.668;2024-01-07T04:04:18;99337.13;;;10.77;100.00
77776;BME280;73554;43.328;6.668;2024-01-07T04:06:43;99282.78;;;10.99;100.00
77776;BME280;73554;43.328;6.668;2024-01-07T04:09:09;99226.75;;;11.18;100.00
77776;BME280;73554;43.328;6.668;2024-01-07T04:11:43;99222.28;;;11.38;100.00
77776;BME280;73554;43.328;6.668;2024-01-07T04:14:09;99235.09;;;11.44;100.00
77776;BME280;73554;43.328;6.668;2024-01-07T04:16:34;99259.34;;;11.49;100.00
77776;BME280;73554;43.328;6.668;2024-01-07T04:19:00;99223.66;;;11.62;100.00
77776;BME280;73554;43.328;6.668;2024-01-07T04:21:26;99302.22;;;11.48;100.00
77776;BME280;73554;43.328;6.668;2024-01-07T04:23:51;99299.06;;;11.41;100.00
77776;BME280;73554;43.328;6.668;2024-01-07T04:26:17;99301.91;;;11.37;100.00
77776;BME280;73554;43.328;6.668;2024-01-07T04:28:42;99292.88;;;11.42;100.00
77776;BME280;73554;43.328;6.668;2024-01-07T04:31:08;99262.72;;;11.51;100.00
77776;BME280;73554;43.328;6.668;2024-01-07T04:33:34;99279.63;;;11.45;100.00
77776;BME280;73554;43.328;6.668;2024-01-07T04:35:59;99293.97;;;11.38;100.00
77776;BME280;73554;43.328;6.668;2024-01-07T04:38:25;99302.06;;;11.34;100.00
77776;BME280;73554;43.328;6.668;2024-01-07T04:40:51;99282.19;;;11.47;100.00
77776;BME280;73554;43.328;6.668;2024-01-07T04:43:18;99303.06;;;11.31;100.00
77776;BME280;73554;43.328;6.668;2024-01-07T04:45:43;99276.13;;;11.27;100.00
77776;BME280;73554;43.328;6.668;2024-01-07T04:48:09;99273.66;;;11.24;100.00
77776;BME280;73554;43.328;6.668;2024-01-07T04:50:34;99266.09;;;11.18;100.00
77776;BME280;73554;43.328;6.668;2024-01-07T04:52:59;99247.47;;;11.42;100.00
77776;BME280;73554;43.328;6.668;2024-01-07T04:55:25;99228.28;;;11.40;100.00
77776;BME280;73554;43.328;6.668;2024-01-07T04:57:50;99209.63;;;11.46;100.00
77776;BME280;73554;43.328;6.668;2024-01-07T05:00:16;99239.72;;;11.39;100.00
77776;BME280;73554;43.328;6.668;2024-01-07T05:02:42;99248.94;;;11.47;100.00
77776;BME280;73554;43.328;6.668;2024-01-07T05:05:08;99247.59;;;11.56;100.00
77776;BME280;73554;43.328;6.668;2024-01-07T05:07:34;99283.09;;;11.46;100.00
77776;BME280;73554;43.328;6.668;2024-01-07T05:09:59;99278.84;;;11.43;100.00
77776;BME280;73554;43.328;6.668;2024-01-07T05:12:25;99280.56;;;11.44;100.00
77776;BME280;73554;43.328;6.668;2024-01-07T05:14:51;99338.47;;;11.22;100.00
77776;BME280;73554;43.328;6.668;2024-01-07T05:17:17;99311.78;;;11.31;100.00
77776;BME280;73554;43.328;6.668;2024-01-07T05:19:42;99282.56;;;11.39;100.00
77776;BME280;73554;43.328;6.668;2024-01-07T05:22:08;99296.97;;;11.30;100.00
77776;BME280;73554;43.328;6.668;2024-01-07T05:24:33;99275.22;;;11.46;100.00
77776;BME280;73554;43.328;6.668;2024-01-07T05:26:58;99269.84;;;11.66;100.00
77776;BME280;73554;43.328;6.668;2024-01-07T05:29:24;99245.69;;;11.76;100.00
77776;BME280;73554;43.328;6.668;2024-01-07T05:31:49;99272.81;;;11.77;100.00
77776;BME280;73554;43.328;6.668;2024-01-07T05:34:15;99272.88;;;11.75;100.00
77776;BME280;73554;43.328;6.668;2024-01-07T05:36:40;99261.81;;;11.86;100.00
77776;BME280;73554;43.328;6.668;2024-01-07T05:39:06;99278.19;;;11.91;100.00
77776;BME280;73554;43.328;6.668;2024-01-07T05:41:32;99268.47;;;11.93;100.00
77776;BME280;73554;43.328;6.668;2024-01-07T05:43:58;99262.72;;;12.02;100.00
77776;BME280;73554;43.328;6.668;2024-01-07T05:46:23;99292.69;;;11.98;100.00
77776;BME280;73554;43.328;6.668;2024-01-07T05:48:49;99291.25;;;11.93;100.00
77776;BME280;73554;43.328;6.668;2024-01-07T05:51:15;99364.63;;;11.60;100.00
77776;BME280;73554;43.328;6.668;2024-01-07T05:53:41;99343.44;;;11.46;100.00
77776;BME280;73554;43.328;6.668;2024-01-07T05:56:08;99307.66;;;11.62;100.00
77776;BME280;73554;43.328;6.668;2024-01-07T05:58:34;99355.09;;;11.40;100.00
77776;BME280;73554;43.328;6.668;2024-01-07T06:00:59;99334.38;;;11.34;100.00
77776;BME280;73554;43.328;6.668;2024-01-07T06:03:26;99340.28;;;11.20;100.00
77776;BME280;73554;43.328;6.668;2024-01-07T06:05:51;99288.44;;;11.44;100.00
77776;BME280;73554;43.328;6.668;2024-01-07T06:08:17;99314.25;;;11.35;100.00
77776;BME280;73554;43.328;6.668;2024-01-07T06:10:43;99303.75;;;11.35;100.00
77776;BME280;73554;43.328;6.668;2024-01-07T06:13:08;99336.03;;;11.18;100.00
77776;BME280;73554;43.328;6.668;2024-01-07T06:15:34;99320.16;;;11.21;100.00
77776;BME280;73554;43.328;6.668;2024-01-07T06:17:59;99356.03;;;11.02;100.00
77776;BME280;73554;43.328;6.668;2024-01-07T06:20:24;99336.16;;;10.98;100.00
77776;BME280;73554;43.328;6.668;2024-01-07T06:22:50;99352.69;;;10.80;100.00
77776;BME280;73554;43.328;6.668;2024-01-07T06:25:16;99329.28;;;10.95;100.00
77776;BME280;73554;43.328;6.668;2024-01-07T06:27:41;99358.16;;;10.94;100.00
77776;BME280;73554;43.328;6.668;2024-01-07T06:30:07;99317.28;;;11.08;100.00
77776;BME280;73554;43.328;6.668;2024-01-07T06:32:33;99316.44;;;11.08;100.00
77776;BME280;73554;43.328;6.668;2024-01-07T06:34:59;99373.50;;;10.84;100.00
77776;BME280;73554;43.328;6.668;2024-01-07T06:37:25;99336.34;;;11.12;100.00
77776;BME280;73554;43.328;6.668;2024-01-07T06:39:51;99307.28;;;11.16;100.00
77776;BME280;73554;43.328;6.668;2024-01-07T06:42:16;99332.06;;;11.09;100.00
77776;BME280;73554;43.328;6.668;2024-01-07T06:44:42;99342.41;;;11.12;100.00
77776;BME280;73554;43.328;6.668;2024-01-07T06:47:07;99325.50;;;11.19;100.00
77776;BME280;73554;43.328;6.668;2024-01-07T06:49:33;99386.88;;;11.15;100.00
77776;BME280;73554;43.328;6.668;2024-01-07T06:51:58;99347.53;;;11.15;100.00
77776;BME280;73554;43.328;6.668;2024-01-07T06:54:25;99344.63;;;11.21;100.00
77776;BME280;73554;43.328;6.668;2024-01-07T06:56:50;99342.13;;;11.18;100.00
77776;BME280;73554;43.328;6.668;2024-01-07T06:59:16;99341.38;;;11.16;100.00
77776;BME280;73554;43.328;6.668;2024-01-07T07:01:41;99385.50;;;10.88;100.00
77776;BME280;73554;43.328;6.668;2024-01-07T07:04:06;99355.00;;;11.06;100.00
77776;BME280;73554;43.328;6.668;2024-01-07T07:06:32;99358.75;;;11.00;100.00
77776;BME280;73554;43.328;6.668;2024-01-07T07:08:57;99377.88;;;11.02;100.00
77776;BME280;73554;43.328;6.668;2024-01-07T07:11:23;99329.78;;;11.20;100.00
77776;BME280;73554;43.328;6.668;2024-01-07T07:13:48;99342.72;;;11.25;100.00
77776;BME280;73554;43.328;6.668;2024-01-07T07:16:14;99388.22;;;11.05;100.00
77776;BME280;73554;43.328;6.668;2024-01-07T07:18:39;99424.06;;;10.86;100.00
77776;BME280;73554;43.328;6.668;2024-01-07T07:21:05;99381.75;;;10.94;100.00
77776;BME280;73554;43.328;6.668;2024-01-07T07:23:30;99371.72;;;11.03;100.00
77776;BME280;73554;43.328;6.668;2024-01-07T07:25:56;99398.94;;;11.01;100.00
77776;BME280;73554;43.328;6.668;2024-01-07T07:28:21;99429.03;;;10.92;100.00
77776;BME280;73554;43.328;6.668;2024-01-07T07:30:47;99408.06;;;10.92;100.00
77776;BME280;73554;43.328;6.668;2024-01-07T07:33:12;99430.50;;;10.79;100.00
77776;BME280;73554;43.328;6.668;2024-01-07T07:35:39;99425.44;;;10.75;100.00
77776;BME280;73554;43.328;6.668;2024-01-07T07:38:06;99437.13;;;10.67;100.00
77776;BME280;73554;43.328;6.668;2024-01-07T07:40:31;99427.34;;;10.71;100.00
77776;BME280;73554;43.328;6.668;2024-01-07T07:42:57;99413.94;;;10.79;100.00
77776;BME280;73554;43.328;6.668;2024-01-07T07:45:22;99463.09;;;10.53;100.00
77776;BME280;73554;43.328;6.668;2024-01-07T07:47:48;99456.13;;;10.52;100.00
77776;BME280;73554;43.328;6.668;2024-01-07T07:50:14;99469.81;;;10.39;100.00
77776;BME280;73554;43.328;6.668;2024-01-07T07:52:41;99471.63;;;10.17;100.00
77776;BME280;73554;43.328;6.668;2024-01-07T07:55:09;99467.19;;;10.19;100.00
77776;BME280;73554;43.328;6.668;2024-01-07T07:57:34;99456.72;;;10.19;100.00
77776;BME280;73554;43.328;6.668;2024-01-07T08:00:00;99453.13;;;10.21;100.00
77776;BME280;73554;43.328;6.668;2024-01-07T08:02:26;99444.75;;;10.11;100.00
77776;BME280;73554;43.328;6.668;2024-01-07T08:04:51;99426.47;;;10.32;100.00
77776;BME280;73554;43.328;6.668;2024-01-07T08:07:17;99448.97;;;10.36;100.00
77776;BME280;73554;43.328;6.668;2024-01-07T08:09:43;99470.38;;;10.25;100.00
77776;BME280;73554;43.328;6.668;2024-01-07T08:12:08;99462.53;;;10.25;100.00
77776;BME280;73554;43.328;6.668;2024-01-07T08:14:33;99469.72;;;10.20;100.00
77776;BME280;73554;43.328;6.668;2024-01-07T08:16:59;99463.25;;;10.29;100.00
77776;BME280;73554;43.328;6.668;2024-01-07T08:19:25;99430.44;;;10.60;100.00
77776;BME280;73554;43.328;6.668;2024-01-07T08:21:50;99428.53;;;10.84;100.00
77776;BME280;73554;43.328;6.668;2024-01-07T08:24:16;99445.75;;;10.90;100.00
77776;BME280;73554;43.328;6.668;2024-01-07T08:26:41;99462.31;;;10.90;100.00
77776;BME280;73554;43.328;6.668;2024-01-07T08:29:07;99477.91;;;10.93;100.00
77776;BME280;73554;43.328;6.668;2024-01-07T08:31:32;99461.66;;;11.05;100.00
77776;BME280;73554;43.328;6.668;2024-01-07T08:33:58;99471.78;;;11.13;100.00
77776;BME280;73554;43.328;6.668;2024-01-07T08:36:24;99469.03;;;11.16;100.00
77776;BME280;73554;43.328;6.668;2024-01-07T08:38:49;99487.41;;;10.96;100.00
77776;BME280;73554;43.328;6.668;2024-01-07T08:41:18;99474.88;;;11.02;100.00
77776;BME280;73554;43.328;6.668;2024-01-07T08:43:43;99500.50;;;10.96;100.00
77776;BME280;73554;43.328;6.668;2024-01-07T08:46:10;99496.97;;;10.97;100.00
77776;BME280;73554;43.328;6.668;2024-01-07T08:48:35;99476.66;;;11.02;100.00
77776;BME280;73554;43.328;6.668;2024-01-07T08:51:01;99481.63;;;11.08;100.00
77776;BME280;73554;43.328;6.668;2024-01-07T08:53:26;99502.47;;;11.11;100.00
77776;BME280;73554;43.328;6.668;2024-01-07T08:55:52;99502.81;;;11.03;100.00
77776;BME280;73554;43.328;6.668;2024-01-07T08:58:17;99483.88;;;10.97;100.00
77776;BME280;73554;43.328;6.668;2024-01-07T09:00:43;99474.97;;;11.01;100.00
77776;BME280;73554;43.328;6.668;2024-01-07T09:03:09;99509.97;;;11.00;100.00
77776;BME280;73554;43.328;6.668;2024-01-07T09:05:35;99504.84;;;10.97;100.00
77776;BME280;73554;43.328;6.668;2024-01-07T09:08:00;99484.47;;;11.03;100.00
77776;BME280;73554;43.328;6.668;2024-01-07T09:10:26;99504.22;;;10.92;100.00
77776;BME280;73554;43.328;6.668;2024-01-07T09:12:52;99509.25;;;10.96;100.00
77776;BME280;73554;43.328;6.668;2024-01-07T09:15:19;99509.63;;;11.07;100.00
77776;BME280;73554;43.328;6.668;2024-01-07T09:17:46;99496.31;;;11.12;100.00
77776;BME280;73554;43.328;6.668;2024-01-07T09:20:12;99490.59;;;11.22;100.00
77776;BME280;73554;43.328;6.668;2024-01-07T09:22:37;99459.84;;;11.45;100.00
77776;BME280;73554;43.328;6.668;2024-01-07T09:25:04;99470.66;;;11.56;100.00
77776;BME280;73554;43.328;6.668;2024-01-07T09:27:30;99490.69;;;11.58;100.00
77776;BME280;73554;43.328;6.668;2024-01-07T09:29:56;99498.38;;;11.61;100.00
77776;BME280;73554;43.328;6.668;2024-01-07T09:32:21;99478.72;;;11.71;100.00
77776;BME280;73554;43.328;6.668;2024-01-07T09:34:47;99451.56;;;11.89;100.00
77776;BME280;73554;43.328;6.668;2024-01-07T09:37:12;99483.06;;;11.89;100.00
77776;BME280;73554;43.328;6.668;2024-01-07T09:39:42;99462.31;;;12.02;100.00
77776;BME280;73554;43.328;6.668;2024-01-07T09:42:13;99487.59;;;12.05;100.00
77776;BME280;73554;43.328;6.668;2024-01-07T09:44:39;99454.47;;;12.19;100.00
77776;BME280;73554;43.328;6.668;2024-01-07T09:47:07;99503.88;;;12.11;100.00
77776;BME280;73554;43.328;6.668;2024-01-07T09:49:35;99508.22;;;12.12;100.00
77776;BME280;73554;43.328;6.668;2024-01-07T09:52:04;99527.63;;;12.10;100.00
77776;BME280;73554;43.328;6.668;2024-01-07T09:54:30;99542.53;;;12.09;100.00
77776;BME280;73554;43.328;6.668;2024-01-07T09:57:05;99549.16;;;11.99;100.00
77776;BME280;73554;43.328;6.668;2024-01-07T09:59:36;99528.47;;;12.10;100.00
77776;BME280;73554;43.328;6.668;2024-01-07T10:02:02;99477.81;;;12.25;100.00
77776;BME280;73554;43.328;6.668;2024-01-07T10:04:28;99473.09;;;12.49;100.00
77776;BME280;73554;43.328;6.668;2024-01-07T10:06:54;99460.94;;;12.64;100.00
77776;BME280;73554;43.328;6.668;2024-01-07T10:09:22;99463.47;;;12.82;100.00
77776;BME280;73554;43.328;6.668;2024-01-07T10:11:49;99456.34;;;12.84;100.00
77776;BME280;73554;43.328;6.668;2024-01-07T10:14:15;99450.44;;;12.96;100.00
77776;BME280;73554;43.328;6.668;2024-01-07T10:16:40;99488.19;;;12.95;100.00
77776;BME280;73554;43.328;6.668;2024-01-07T10:19:06;99530.38;;;12.94;100.00
77776;BME280;73554;43.328;6.668;2024-01-07T10:21:33;99519.69;;;12.97;100.00
77776;BME280;73554;43.328;6.668;2024-01-07T10:24:12;99495.53;;;13.06;100.00
77776;BME280;73554;43.328;6.668;2024-01-07T10:26:38;99489.38;;;13.07;100.00
77776;BME280;73554;43.328;6.668;2024-01-07T10:29:05;99525.13;;;13.11;100.00
77776;BME280;73554;43.328;6.668;2024-01-07T10:31:32;99521.63;;;13.28;100.00
77776;BME280;73554;43.328;6.668;2024-01-07T10:33:57;99504.47;;;13.36;100.00
77776;BME280;73554;43.328;6.668;2024-01-07T10:36:24;99533.09;;;13.58;100.00
77776;BME280;73554;43.328;6.668;2024-01-07T10:38:50;99559.09;;;13.48;100.00
77776;BME280;73554;43.328;6.668;2024-01-07T10:41:18;99527.25;;;13.53;100.00
77776;BME280;73554;43.328;6.668;2024-01-07T10:43:46;99547.63;;;13.49;100.00
77776;BME280;73554;43.328;6.668;2024-01-07T10:46:13;99526.22;;;13.40;100.00
77776;BME280;73554;43.328;6.668;2024-01-07T10:48:47;99551.78;;;13.38;100.00
77776;BME280;73554;43.328;6.668;2024-01-07T10:51:16;99522.81;;;13.38;100.00
77776;BME280;73554;43.328;6.668;2024-01-07T10:53:46;99535.84;;;13.24;100.00
77776;BME280;73554;43.328;6.668;2024-01-07T10:56:15;99535.09;;;13.22;100.00
77776;BME280;73554;43.328;6.668;2024-01-07T10:58:46;99522.84;;;13.21;100.00
77776;BME280;73554;43.328;6.668;2024-01-07T11:01:13;99544.47;;;13.10;100.00
77776;BME280;73554;43.328;6.668;2024-01-07T11:03:55;99538.63;;;13.03;100.00
77776;BME280;73554;43.328;6.668;2024-01-07T11:09:26;99500.59;;;13.11;100.00
77776;BME280;73554;43.328;6.668;2024-01-07T11:11:55;99522.66;;;13.08;100.00
77776;BME280;73554;43.328;6.668;2024-01-07T11:14:38;99515.91;;;13.02;100.00
77776;BME280;73554;43.328;6.668;2024-01-07T11:17:10;99518.75;;;12.98;100.00
77776;BME280;73554;43.328;6.668;2024-01-07T11:19:36;99518.59;;;13.01;100.00
77776;BME280;73554;43.328;6.668;2024-01-07T11:22:24;99495.94;;;13.16;100.00
77776;BME280;73554;43.328;6.668;2024-01-07T11:24:54;99512.25;;;13.05;100.00
77776;BME280;73554;43.328;6.668;2024-01-07T11:27:24;99505.22;;;13.05;100.00
77776;BME280;73554;43.328;6.668;2024-01-07T11:30:08;99488.81;;;13.18;100.00
77776;BME280;73554;43.328;6.668;2024-01-07T11:32:45;99464.22;;;13.34;100.00
77776;BME280;73554;43.328;6.668;2024-01-07T11:35:12;99479.31;;;13.31;100.00
77776;BME280;73554;43.328;6.668;2024-01-07T11:37:38;99489.53;;;13.37;100.00
77776;BME280;73554;43.328;6.668;2024-01-07T11:40:05;99484.94;;;13.40;100.00
77776;BME280;73554;43.328;6.668;2024-01-07T11:42:32;99498.81;;;13.44;100.00
77776;BME280;73554;43.328;6.668;2024-01-07T11:44:57;99493.16;;;13.34;100.00
77776;BME280;73554;43.328;6.668;2024-01-07T11:47:24;99469.09;;;13.57;100.00
77776;BME280;73554;43.328;6.668;2024-01-07T11:49:51;99469.34;;;13.69;100.00
77776;BME280;73554;43.328;6.668;2024-01-07T11:52:17;99490.16;;;13.73;100.00
77776;BME280;73554;43.328;6.668;2024-01-07T11:54:42;99500.16;;;13.66;100.00
77776;BME280;73554;43.328;6.668;2024-01-07T11:57:10;99502.03;;;13.64;100.00
77776;BME280;73554;43.328;6.668;2024-01-07T11:59:36;99508.47;;;13.43;100.00
77776;BME280;73554;43.328;6.668;2024-01-07T12:02:03;99497.19;;;13.41;100.00
77776;BME280;73554;43.328;6.668;2024-01-07T12:04:32;99510.56;;;13.37;100.00
77776;BME280;73554;43.328;6.668;2024-01-07T12:06:58;99515.41;;;13.29;100.00
77776;BME280;73554;43.328;6.668;2024-01-07T12:09:24;99499.72;;;13.43;100.00
77776;BME280;73554;43.328;6.668;2024-01-07T12:11:50;99495.38;;;13.42;100.00
77776;BME280;73554;43.328;6.668;2024-01-07T12:14:17;99490.06;;;13.43;100.00
77776;BME280;73554;43.328;6.668;2024-01-07T12:16:43;99463.13;;;13.54;100.00
77776;BME280;73554;43.328;6.668;2024-01-07T12:19:09;99446.47;;;13.69;100.00
77776;BME280;73554;43.328;6.668;2024-01-07T12:21:35;99443.84;;;13.85;100.00
77776;BME280;73554;43.328;6.668;2024-01-07T12:24:00;99457.50;;;13.91;100.00
77776;BME280;73554;43.328;6.668;2024-01-07T12:26:27;99482.75;;;13.95;100.00
77776;BME280;73554;43.328;6.668;2024-01-07T12:28:57;99461.97;;;14.05;100.00
77776;BME280;73554;43.328;6.668;2024-01-07T12:31:26;99453.84;;;14.09;100.00
77776;BME280;73554;43.328;6.668;2024-01-07T12:33:52;99452.03;;;14.10;100.00
77776;BME280;73554;43.328;6.668;2024-01-07T12:36:24;99458.38;;;14.21;100.00
77776;BME280;73554;43.328;6.668;2024-01-07T12:38:50;99506.13;;;14.01;100.00
77776;BME280;73554;43.328;6.668;2024-01-07T12:41:19;99509.09;;;13.95;100.00
77776;BME280;73554;43.328;6.668;2024-01-07T12:43:44;99480.84;;;14.13;100.00
77776;BME280;73554;43.328;6.668;2024-01-07T12:46:10;99478.38;;;14.10;100.00
77776;BME280;73554;43.328;6.668;2024-01-07T12:48:35;99480.50;;;14.19;100.00